Aérodrome :
LOGIN :

S'inscrire | Disclaimer

   EN    FR    IT 

 










Légende :    VFR   VFR Marginal   IFR   IFR Intensif   IFR Très Intensif
Visi : 
Plafond : 
>= 8 km
>= 3000ft
5 à 8 km
1000 à 3000 ft
1500m à 5 km
500 à 1000 ft
800 à 1500m
200 à 500 ft
< 800m
< 200 ft
Symboles :   Orages  Brouillard  Fortes neiges  Fortes précipitations  Vent > 20 kt
SIGMETs :   Divers  Orages  Givrage  Turbulence  Onde Orograph.  Cendres Volcan.







- Altitude de l'aérodrome : 1260 ft
- Code IATA : LDE
- Voir les cartes d'approche


LFBT - Tarbes / Ossun

DERNIER METAR :
  • 210000Z AUTO 34003KT 7000 -RA SCT009/// BKN015/// OVC022/// ///TCU 16/16 Q1017 TEMPO 4000 RA SCT040CB

METARs EXPIRÉS :
  • 202330Z AUTO 02002KT 6000 -RA FEW007/// OVC021/// ///CB 16/16 Q1017 TEMPO 4000 RA BKN008 BKN030TCU
  • 202300Z AUTO 30003KT 4600 RA BR SCT006/// OVC020/// ///CB 16/16 Q1018 TEMPO 28015G30KT 2500 TSRA BKN005 BKN030CB
  • 202230Z AUTO VRB02KT 7000 -RA FEW007/// BKN021/// OVC028/// ///CB 16/16 Q1018 TEMPO 28015G30KT 2500 TSRA BKN005 BKN030CB
  • 202200Z AUTO 00000KT 8000 -RA SCT005/// OVC020/// ///CB 16/16 Q1017 TEMPO 28015G30KT 2500 TSRA BKN005 BKN030CB
  • 202130Z AUTO 00000KT 9000 -RA OVC020/// ///TCU 16/16 Q1017 TEMPO 28015G30KT 2500 TSRA BKN005 BKN030CB
  • 202100Z AUTO VRB01KT 9000 FEW008/// OVC020/// ///TCU 17/16 Q1018 TEMPO 28015G30KT 2500 TSRA BKN005 BKN030CB

TAF TAF LFBT
Valide du 21 à 00h jusqu'au 22 à 00h UTC


202300Z 2100/2124 28005KT 9999 BKN020
TEMPO 2100/2109 4000 RA BKN008 BKN030TCU
PROB30
TEMPO 2100/2109 -TSRA SCT040CB
PROB30
TEMPO 2109/2112 BKN005
BECMG 2110/2112 28010KT
BECMG 2112/2114 BKN035
BECMG 2118/2120 VRB02KT
Pas de NOTAMs connus pour ce terrain.
1 SIGMET publié pour la FIR Bordeaux (LFBB) :
 
Orages noyés dans la masse
LFBB SIGMET 6 VALID 202300/210300 LFPW
LFBB BORDEAUX FIR/UIR EMBD TS FCST WI N4230 E00045 - N4245 W00045 - N4300 W00030 - N4245 E00100 - N4230 E00045 TOP FL310 MOV NE 10KT WKN=



MET'MAP, la Météo Aéronautique d'un coup d'oeil ! - Copyright ORBIFLY Décembre 2007 - Disclaimer

ORBIFLY MET'MAP TEAM :

Programmation & Développement : Alexandra Zaïnal
Conception & Développement : Baudouin d'Aumeries
Co-Programmation & Développement : Marc-Olivier Méhu
Soutien technique & logistique : Manuel Goepfert

Contact : metmap@orbifly.com




SOURCES & CREDITS :

   NOAA